createdAt,value
2022-09-05T00:01:47.807Z,19.70
2022-09-05T00:04:28.755Z,19.70
2022-09-05T00:07:03.621Z,19.60
2022-09-05T00:09:57.063Z,19.60
2022-09-05T00:12:27.815Z,19.60
2022-09-05T00:15:20.869Z,19.60
2022-09-05T00:21:41.511Z,19.60
2022-09-05T00:24:35.364Z,19.60
2022-09-05T00:24:37.053Z,19.60
2022-09-05T00:27:01.814Z,19.60
2022-09-05T00:31:07.420Z,19.60
2022-09-05T00:32:56.352Z,19.60
2022-09-05T00:35:34.799Z,19.50
2022-09-05T00:38:15.035Z,19.50
2022-09-05T00:40:46.477Z,19.50
2022-09-05T00:43:19.480Z,19.50
2022-09-05T00:45:51.661Z,19.50
2022-09-05T00:48:30.341Z,19.50
2022-09-05T00:51:06.807Z,19.50
2022-09-05T00:53:50.119Z,19.40
2022-09-05T00:56:40.940Z,19.40
2022-09-05T00:59:58.666Z,19.40
2022-09-05T01:02:51.657Z,19.40
2022-09-05T01:05:37.201Z,19.40
2022-09-05T01:08:20.900Z,19.40
2022-09-05T01:10:55.161Z,19.30
2022-09-05T01:13:36.332Z,19.30
2022-09-05T01:16:12.606Z,19.30
2022-09-05T01:18:52.742Z,19.30
2022-09-05T01:21:55.898Z,19.30
2022-09-05T01:24:35.902Z,19.20
2022-09-05T01:28:02.507Z,19.20
2022-09-05T01:30:32.134Z,19.20
2022-09-05T01:33:12.259Z,19.20
2022-09-05T01:36:03.498Z,19.20
2022-09-05T01:38:40.995Z,19.20
2022-09-05T01:41:24.189Z,19.10
2022-09-05T01:44:06.158Z,19.10
2022-09-05T01:46:44.847Z,19.10
2022-09-05T01:49:25.514Z,19.10
2022-09-05T01:52:23.553Z,19.10
2022-09-05T01:55:09.061Z,19.10
2022-09-05T01:57:47.506Z,19.10
2022-09-05T02:00:18.757Z,19.20
2022-09-05T02:03:02.027Z,19.20
2022-09-05T02:06:07.620Z,19.10
2022-09-05T02:09:04.647Z,19.20
2022-09-05T02:11:46.558Z,19.20
2022-09-05T02:14:33.992Z,19.20
2022-09-05T02:17:33.481Z,19.20
2022-09-05T02:20:20.828Z,19.20
2022-09-05T02:23:01.618Z,19.20
2022-09-05T02:26:01.106Z,19.20
2022-09-05T02:28:41.313Z,19.20
2022-09-05T02:31:19.386Z,19.20
2022-09-05T02:34:01.687Z,19.20
2022-09-05T02:36:39.963Z,19.20
2022-09-05T02:45:01.286Z,19.20
2022-09-05T02:45:07.126Z,19.20
2022-09-05T02:45:26.832Z,19.20
2022-09-05T02:48:09.698Z,19.30
2022-09-05T02:53:57.799Z,19.30
2022-09-05T02:57:33.106Z,19.30
2022-09-05T02:57:46.252Z,19.30
2022-09-05T03:00:11.214Z,19.30
2022-09-05T03:03:05.266Z,19.30
2022-09-05T03:05:38.265Z,19.30
2022-09-05T03:08:18.780Z,19.40
2022-09-05T03:11:42.906Z,19.40
2022-09-05T03:14:58.928Z,19.40
2022-09-05T03:18:19.998Z,19.30
2022-09-05T03:21:29.577Z,19.30
2022-09-05T03:24:30.494Z,19.40
2022-09-05T03:27:37.030Z,19.40
2022-09-05T03:30:15.564Z,19.40
2022-09-05T03:33:08.030Z,19.40
2022-09-05T03:36:29.838Z,19.40
2022-09-05T03:39:48.926Z,19.40
2022-09-05T03:42:48.271Z,19.40
2022-09-05T03:45:44.250Z,19.40
2022-09-05T03:48:36.783Z,19.30
2022-09-05T03:57:10.526Z,19.30
2022-09-05T03:57:25.814Z,19.30
2022-09-05T03:57:56.569Z,19.30
2022-09-05T04:00:33.702Z,19.20
2022-09-05T04:08:06.416Z,19.20
2022-09-05T04:08:26.020Z,19.20
2022-09-05T04:09:08.438Z,19.20
2022-09-05T04:11:40.496Z,19.20
2022-09-05T04:14:15.095Z,19.20
2022-09-05T04:16:52.421Z,19.20
2022-09-05T04:19:29.657Z,19.20
2022-09-05T04:22:20.171Z,19.20
2022-09-05T04:25:00.410Z,19.20
2022-09-05T04:27:38.492Z,19.30
2022-09-05T04:30:38.250Z,19.30
2022-09-05T04:33:22.199Z,19.20
2022-09-05T04:36:18.114Z,19.20
2022-09-05T04:39:06.560Z,19.20
2022-09-05T04:41:40.299Z,19.20
2022-09-05T04:44:14.795Z,19.10
2022-09-05T04:46:49.316Z,19.10
2022-09-05T04:49:21.699Z,19.10
2022-09-05T04:52:46.785Z,19.00
2022-09-05T04:55:17.055Z,19.00
2022-09-05T04:57:54.080Z,19.00
2022-09-05T05:05:59.244Z,19.00
2022-09-05T05:06:10.848Z,19.00
2022-09-05T05:06:37.945Z,18.90
2022-09-05T05:09:17.407Z,18.90
2022-09-05T05:17:55.705Z,19.00
2022-09-05T05:17:57.529Z,19.00
2022-09-05T05:18:14.368Z,19.00
2022-09-05T05:20:40.210Z,19.00
2022-09-05T05:23:14.536Z,19.00
2022-09-05T05:25:51.694Z,19.00
2022-09-05T05:28:28.551Z,19.00
2022-09-05T05:31:01.440Z,19.00
2022-09-05T05:33:33.004Z,19.00
2022-09-05T05:36:05.482Z,19.00
2022-09-05T05:38:40.931Z,19.10
2022-09-05T05:41:18.605Z,19.10
2022-09-05T05:43:48.783Z,19.10
2022-09-05T05:46:29.303Z,19.10
2022-09-05T05:49:08.092Z,19.10
2022-09-05T05:52:02.093Z,19.10
2022-09-05T05:54:37.598Z,19.10
2022-09-05T05:57:46.796Z,19.10
2022-09-05T06:00:28.062Z,19.10
2022-09-05T06:03:36.985Z,19.10
2022-09-05T06:06:14.498Z,19.10
2022-09-05T06:14:31.261Z,19.20
2022-09-05T06:15:01.920Z,19.20
2022-09-05T06:16:11.552Z,19.30
2022-09-05T06:19:30.505Z,19.40
2022-09-05T06:22:54.863Z,19.50
2022-09-05T06:25:51.445Z,19.70
2022-09-05T06:28:27.677Z,19.80
2022-09-05T06:31:28.907Z,19.80
2022-09-05T06:34:35.351Z,19.90
2022-09-05T06:37:09.829Z,19.90
2022-09-05T06:40:00.317Z,20.00
2022-09-05T06:42:43.480Z,20.10
2022-09-05T06:45:46.466Z,20.10
2022-09-05T06:48:40.158Z,20.30
2022-09-05T06:51:44.806Z,20.30
2022-09-05T06:54:47.308Z,20.40
2022-09-05T06:57:50.655Z,20.50
2022-09-05T07:00:23.793Z,20.60
2022-09-05T07:03:23.977Z,20.70
2022-09-05T07:05:57.789Z,20.80
2022-09-05T07:08:37.223Z,20.90
2022-09-05T07:11:16.568Z,21.00
2022-09-05T07:13:56.210Z,21.00
2022-09-05T07:16:37.819Z,21.10
2022-09-05T07:19:24.510Z,21.20
2022-09-05T07:22:18.451Z,21.30
2022-09-05T07:25:09.795Z,21.30
2022-09-05T07:28:28.751Z,21.40
2022-09-05T07:30:36.990Z,21.50
2022-09-05T07:33:06.960Z,21.60
2022-09-05T07:35:41.512Z,21.70
2022-09-05T07:38:15.988Z,21.70
2022-09-05T07:40:53.388Z,21.80
2022-09-05T07:43:27.615Z,21.90
2022-09-05T07:46:11.668Z,22.00
2022-09-05T07:48:43.691Z,22.10
2022-09-05T07:56:31.992Z,22.10
2022-09-05T07:57:02.495Z,22.30
2022-09-05T07:57:31.145Z,22.40
2022-09-05T08:00:07.015Z,22.50
2022-09-05T08:02:35.695Z,22.70
2022-09-05T08:05:05.049Z,22.80
2022-09-05T08:07:49.878Z,22.90
2022-09-05T08:10:35.555Z,23.00
2022-09-05T08:13:24.048Z,23.10
2022-09-05T08:16:04.281Z,23.20
2022-09-05T08:18:46.196Z,23.40
2022-09-05T08:21:26.946Z,23.50
2022-09-05T08:24:09.139Z,23.50
2022-09-05T08:26:47.219Z,23.70
2022-09-05T08:29:32.689Z,23.70
2022-09-05T08:35:28.847Z,23.90
2022-09-05T08:37:59.404Z,23.90
2022-09-05T08:40:35.731Z,24.00
2022-09-05T08:45:35.197Z,24.10
2022-09-05T08:46:47.066Z,24.20
2022-09-05T08:49:12.505Z,24.40
2022-09-05T08:51:54.323Z,24.60
2022-09-05T08:54:31.620Z,24.80
2022-09-05T08:57:11.620Z,25.00
2022-09-05T09:00:18.527Z,25.30
2022-09-05T09:02:55.659Z,25.50
2022-09-05T09:06:13.890Z,25.80
2022-09-05T09:08:55.603Z,26.10
2022-09-05T09:11:32.186Z,26.50
2022-09-05T09:14:30.641Z,26.90
2022-09-05T09:17:07.831Z,27.20
2022-09-05T09:19:48.485Z,27.60
2022-09-05T09:22:27.745Z,28.00
2022-09-05T09:25:11.256Z,28.30
2022-09-05T09:28:45.167Z,28.60
2022-09-05T09:31:00.366Z,29.10
2022-09-05T09:33:38.135Z,29.60
2022-09-05T09:36:21.830Z,29.90
2022-09-05T09:39:32.306Z,30.40
2022-09-05T09:42:07.721Z,30.80
2022-09-05T09:45:27.504Z,31.20
2022-09-05T09:48:24.658Z,31.50
2022-09-05T09:51:10.134Z,31.80
2022-09-05T09:53:54.899Z,31.90
2022-09-05T09:56:52.543Z,32.10
2022-09-05T09:59:56.277Z,32.30
2022-09-05T10:08:38.004Z,32.50
2022-09-05T10:10:45.542Z,32.70
2022-09-05T10:10:46.907Z,32.80
2022-09-05T10:15:06.564Z,33.00
2022-09-05T10:18:23.487Z,33.20
2022-09-05T10:21:16.009Z,33.20
2022-09-05T10:24:10.933Z,33.30
2022-09-05T10:27:11.063Z,33.50
2022-09-05T10:29:50.181Z,33.50
2022-09-05T10:34:39.449Z,33.60
2022-09-05T10:35:27.370Z,33.60
2022-09-05T10:38:10.818Z,33.80
2022-09-05T10:41:09.686Z,33.90
2022-09-05T10:43:34.955Z,34.00
2022-09-05T10:46:16.996Z,34.10
2022-09-05T10:48:55.602Z,34.10
2022-09-05T10:51:30.713Z,33.90
2022-09-05T10:54:29.199Z,33.90
2022-09-05T10:57:07.153Z,34.10
2022-09-05T11:02:24.541Z,34.20
2022-09-05T11:02:48.156Z,34.30
2022-09-05T11:05:27.155Z,34.30
2022-09-05T11:08:06.667Z,34.40
2022-09-05T11:10:44.265Z,34.30
2022-09-05T11:13:23.953Z,34.30
2022-09-05T11:16:11.541Z,34.40
2022-09-05T11:19:04.035Z,34.60
2022-09-05T11:22:04.004Z,34.50
2022-09-05T11:24:52.461Z,34.50
2022-09-05T11:27:30.877Z,34.60
2022-09-05T11:30:05.523Z,34.80
2022-09-05T11:39:53.053Z,34.90
2022-09-05T11:39:59.504Z,34.90
2022-09-05T11:40:04.610Z,34.80
2022-09-05T11:42:17.462Z,34.80
2022-09-05T11:45:13.811Z,34.70
2022-09-05T11:48:03.981Z,34.80
2022-09-05T11:50:54.787Z,34.60
2022-09-05T11:54:08.577Z,34.60
2022-09-05T11:57:32.618Z,34.60
2022-09-05T12:00:30.612Z,34.70
2022-09-05T12:03:59.173Z,34.80
2022-09-05T12:06:56.820Z,34.90
2022-09-05T12:09:37.966Z,34.80
2022-09-05T12:12:39.155Z,34.50
2022-09-05T12:15:24.451Z,34.10
2022-09-05T12:18:19.293Z,33.60
2022-09-05T12:20:57.855Z,33.30
2022-09-05T12:24:02.351Z,32.80
2022-09-05T12:27:44.016Z,32.50
2022-09-05T12:29:33.602Z,32.30
2022-09-05T12:33:09.767Z,32.10
2022-09-05T12:36:04.977Z,32.00
2022-09-05T12:40:15.678Z,31.90
2022-09-05T12:41:35.205Z,32.10
2022-09-05T12:44:39.564Z,32.20
2022-09-05T12:46:45.969Z,32.40
2022-09-05T12:49:24.350Z,32.50
2022-09-05T12:52:06.653Z,32.70
2022-09-05T12:54:46.314Z,32.80
2022-09-05T13:02:59.030Z,32.80
2022-09-05T13:03:08.861Z,32.70
2022-09-05T13:03:28.879Z,32.80
2022-09-05T13:06:04.480Z,32.60
2022-09-05T13:08:59.515Z,32.30
2022-09-05T13:14:54.747Z,31.70
2022-09-05T13:15:03.002Z,32.00
2022-09-05T13:17:18.167Z,31.50
2022-09-05T13:19:52.183Z,31.30
2022-09-05T13:22:23.428Z,31.10
2022-09-05T13:25:00.110Z,30.90
2022-09-05T13:27:31.972Z,30.70
2022-09-05T13:31:59.653Z,30.60
2022-09-05T13:38:05.626Z,30.50
2022-09-05T13:38:15.759Z,30.30
2022-09-05T13:39:03.830Z,30.20
2022-09-05T13:41:36.883Z,30.30
2022-09-05T13:44:27.010Z,30.50
2022-09-05T13:47:00.951Z,30.50
2022-09-05T13:49:37.279Z,30.50
2022-09-05T13:52:29.009Z,30.40
2022-09-05T13:55:09.046Z,30.20
2022-09-05T13:57:41.979Z,30.10
2022-09-05T14:00:52.162Z,30.00
2022-09-05T14:03:42.423Z,30.00
2022-09-05T14:06:45.779Z,29.90
2022-09-05T14:09:35.787Z,29.90
2022-09-05T14:12:15.250Z,29.70
2022-09-05T14:18:01.343Z,29.50
2022-09-05T14:20:53.435Z,29.50
2022-09-05T14:23:27.185Z,29.30
2022-09-05T14:26:01.323Z,29.20
2022-09-05T14:28:33.819Z,29.00
2022-09-05T14:35:18.441Z,28.90
2022-09-05T14:37:51.825Z,28.80
2022-09-05T14:38:00.904Z,28.90
2022-09-05T14:40:49.950Z,28.80
2022-09-05T14:43:56.854Z,28.70
2022-09-05T14:46:53.517Z,28.60
2022-09-05T14:49:44.989Z,28.50
2022-09-05T14:52:23.584Z,28.40
2022-09-05T15:02:45.188Z,28.30
2022-09-05T15:02:49.219Z,28.20
2022-09-05T15:06:38.040Z,28.00
2022-09-05T15:12:18.301Z,28.00
2022-09-05T15:12:33.137Z,28.00
2022-09-05T15:15:18.193Z,27.90
2022-09-05T15:17:49.869Z,27.90
2022-09-05T15:20:40.261Z,27.90
2022-09-05T15:23:16.606Z,27.80
2022-09-05T15:25:49.280Z,27.70
2022-09-05T15:28:23.221Z,27.70
2022-09-05T15:31:00.081Z,27.60
2022-09-05T15:33:30.753Z,27.60
2022-09-05T15:36:00.688Z,27.60
2022-09-05T15:38:55.234Z,27.50
2022-09-05T15:41:27.560Z,27.50
2022-09-05T15:44:01.378Z,27.40
2022-09-05T15:46:48.084Z,27.40
2022-09-05T15:49:37.387Z,27.40
2022-09-05T15:52:11.010Z,27.40
2022-09-05T15:54:49.819Z,27.40
2022-09-05T15:57:25.007Z,27.50
2022-09-05T15:59:57.343Z,27.50
2022-09-05T16:02:28.765Z,27.50
2022-09-05T16:10:30.273Z,27.50
2022-09-05T16:10:42.369Z,27.60
2022-09-05T16:12:03.033Z,27.70
2022-09-05T16:14:23.720Z,27.70
2022-09-05T16:23:13.282Z,27.80
2022-09-05T16:23:13.357Z,27.80
2022-09-05T16:23:27.784Z,27.70
2022-09-05T16:25:35.517Z,27.70
2022-09-05T16:28:06.586Z,27.70
2022-09-05T16:30:39.169Z,27.60
2022-09-05T16:33:13.343Z,27.60
2022-09-05T16:35:49.557Z,27.50
2022-09-05T16:38:24.203Z,27.50
2022-09-05T16:41:14.421Z,27.60
2022-09-05T16:43:50.866Z,27.50
2022-09-05T16:46:23.740Z,27.50
2022-09-05T16:48:56.602Z,27.50
2022-09-05T16:51:35.523Z,27.40
2022-09-05T16:54:13.070Z,27.30
2022-09-05T16:56:44.591Z,27.30
2022-09-05T16:59:17.736Z,27.30
2022-09-05T17:02:06.050Z,27.20
2022-09-05T17:05:06.086Z,27.20
2022-09-05T17:07:57.141Z,27.10
2022-09-05T17:10:28.572Z,27.10
2022-09-05T17:12:57.454Z,27.00
2022-09-05T17:15:29.126Z,27.00
2022-09-05T17:18:21.630Z,27.00
2022-09-05T17:20:56.428Z,26.90
2022-09-05T17:29:15.248Z,26.80
2022-09-05T17:29:27.001Z,26.80
2022-09-05T17:32:48.164Z,26.60
2022-09-05T17:35:42.686Z,26.60
2022-09-05T17:38:38.271Z,26.50
2022-09-05T17:41:17.872Z,26.40
2022-09-05T17:43:58.116Z,26.40
2022-09-05T17:46:34.080Z,26.30
2022-09-05T17:49:18.759Z,26.30
2022-09-05T17:52:28.208Z,26.20
2022-09-05T17:54:59.546Z,26.10
2022-09-05T17:57:45.219Z,26.10
2022-09-05T18:01:04.538Z,26.00
2022-09-05T18:04:17.990Z,26.00
2022-09-05T18:06:59.154Z,25.90
2022-09-05T18:10:03.496Z,25.80
2022-09-05T18:13:12.451Z,25.70
2022-09-05T18:16:12.411Z,25.70
2022-09-05T18:19:28.988Z,25.60
2022-09-05T18:21:56.590Z,25.50
2022-09-05T18:24:38.956Z,25.50
2022-09-05T18:27:31.005Z,25.40
2022-09-05T18:30:11.734Z,25.30
2022-09-05T18:32:48.096Z,25.30
2022-09-05T18:35:36.391Z,25.20
2022-09-05T18:38:50.012Z,25.20
2022-09-05T18:41:15.451Z,25.10
2022-09-05T18:44:12.024Z,25.00
2022-09-05T18:46:45.135Z,25.00
2022-09-05T18:50:08.213Z,24.90
2022-09-05T18:52:11.634Z,24.90
2022-09-05T18:54:44.073Z,24.80
2022-09-05T18:57:28.332Z,24.80
2022-09-05T19:00:03.223Z,24.70
2022-09-05T19:02:51.558Z,24.70
2022-09-05T19:05:41.848Z,24.70
2022-09-05T19:08:32.061Z,24.70
2022-09-05T19:11:27.545Z,24.60
2022-09-05T19:14:12.772Z,24.60
2022-09-05T19:16:47.614Z,24.50
2022-09-05T19:19:24.462Z,24.50
2022-09-05T19:21:56.144Z,24.40
2022-09-05T19:24:45.942Z,24.30
2022-09-05T19:31:58.118Z,24.30
2022-09-05T19:37:11.973Z,24.20
2022-09-05T19:37:13.091Z,24.30
2022-09-05T19:37:15.286Z,24.30
2022-09-05T19:41:39.951Z,24.20
2022-09-05T19:47:30.656Z,24.20
2022-09-05T19:47:36.824Z,24.10
2022-09-05T19:47:56.288Z,24.10
2022-09-05T19:50:21.553Z,24.10
2022-09-05T19:53:02.713Z,24.20
2022-09-05T19:55:36.366Z,24.10
2022-09-05T19:58:28.975Z,24.10
2022-09-05T20:01:05.984Z,24.10
2022-09-05T20:03:39.493Z,24.10
2022-09-05T20:06:26.671Z,24.10
2022-09-05T20:09:10.795Z,24.10
2022-09-05T20:11:45.819Z,24.10
2022-09-05T20:14:23.851Z,24.10
2022-09-05T20:16:55.435Z,24.00
2022-09-05T20:19:28.879Z,24.00
2022-09-05T20:22:18.750Z,24.00
2022-09-05T20:24:59.307Z,24.00
2022-09-05T20:27:34.913Z,23.90
2022-09-05T20:30:05.609Z,23.90
2022-09-05T20:32:39.892Z,23.90
2022-09-05T20:39:47.529Z,23.90
2022-09-05T20:43:16.108Z,23.80
2022-09-05T20:43:29.180Z,23.70
2022-09-05T20:43:58.152Z,23.70
2022-09-05T20:49:30.114Z,23.70
2022-09-05T20:54:05.809Z,23.70
2022-09-05T20:54:20.957Z,23.60
2022-09-05T20:55:38.844Z,23.60
2022-09-05T20:58:13.837Z,23.50
2022-09-05T21:00:46.403Z,23.50
2022-09-05T21:03:43.563Z,23.50
2022-09-05T21:06:22.678Z,23.40
2022-09-05T21:08:52.654Z,23.40
2022-09-05T21:11:30.834Z,23.40
2022-09-05T21:14:03.301Z,23.40
2022-09-05T21:16:36.625Z,23.40
2022-09-05T21:19:05.051Z,23.40
2022-09-05T21:21:35.716Z,23.40
2022-09-05T21:24:17.397Z,23.40
2022-09-05T21:26:48.837Z,23.40
2022-09-05T21:29:32.868Z,23.30
2022-09-05T21:32:10.676Z,23.20
2022-09-05T21:34:44.870Z,23.20
2022-09-05T21:37:16.373Z,23.20
2022-09-05T21:39:59.518Z,23.20
2022-09-05T21:43:28.861Z,23.20
2022-09-05T21:47:46.596Z,23.20
2022-09-05T21:48:10.521Z,23.20
2022-09-05T21:50:42.559Z,23.20
2022-09-05T21:57:37.448Z,23.20
2022-09-05T21:59:19.801Z,23.10
2022-09-05T21:59:26.887Z,23.10
2022-09-05T22:01:53.133Z,23.10
2022-09-05T22:04:23.396Z,23.10
2022-09-05T22:06:54.548Z,23.10
2022-09-05T22:09:25.229Z,23.10
2022-09-05T22:11:54.456Z,23.10
2022-09-05T22:14:24.886Z,23.10
2022-09-05T22:16:59.305Z,23.10
2022-09-05T22:19:37.076Z,23.10
2022-09-05T22:22:17.150Z,23.10
2022-09-05T22:24:51.531Z,23.10
2022-09-05T22:27:21.047Z,23.10
2022-09-05T22:29:50.476Z,23.10
2022-09-05T22:32:34.100Z,23.10
2022-09-05T22:35:27.421Z,23.10
2022-09-05T22:37:59.297Z,23.10
2022-09-05T22:40:30.129Z,23.10
2022-09-05T22:42:59.648Z,23.10
2022-09-05T22:45:28.923Z,23.10
2022-09-05T22:47:59.065Z,23.10
2022-09-05T22:50:27.795Z,23.10
2022-09-05T22:52:55.923Z,23.20
2022-09-05T22:55:24.072Z,23.20
2022-09-05T22:57:52.619Z,23.20
2022-09-05T23:00:21.397Z,23.20
2022-09-05T23:02:52.640Z,23.20
2022-09-05T23:05:22.773Z,23.20
2022-09-05T23:07:51.105Z,23.20
2022-09-05T23:10:19.838Z,23.20
2022-09-05T23:12:48.241Z,23.20
2022-09-05T23:15:17.203Z,23.20
2022-09-05T23:17:45.547Z,23.20
2022-09-05T23:20:13.802Z,23.10
2022-09-05T23:22:44.153Z,23.10
2022-09-05T23:25:12.606Z,23.00
2022-09-05T23:27:40.790Z,22.90
2022-09-05T23:30:10.039Z,22.90
2022-09-05T23:32:44.194Z,22.80
2022-09-05T23:35:12.517Z,22.60
2022-09-05T23:37:44.346Z,22.40
2022-09-05T23:40:14.596Z,22.30
2022-09-05T23:42:42.871Z,22.20
2022-09-05T23:45:11.982Z,22.20
2022-09-05T23:47:40.279Z,22.00
2022-09-05T23:50:09.058Z,21.90
2022-09-05T23:52:40.556Z,21.70
2022-09-05T23:55:13.232Z,21.60
2022-09-05T23:57:42.168Z,21.50
